sensor_id;sensor_type;location;lat;lon;timestamp;temperature;humidity
7196;DHT22;3639;51.308;5.624;2023-11-18T00:02:23;4.00;99.90
7196;DHT22;3639;51.308;5.624;2023-11-18T00:04:50;4.00;99.90
7196;DHT22;3639;51.308;5.624;2023-11-18T00:07:15;4.00;99.90
7196;DHT22;3639;51.308;5.624;2023-11-18T00:09:41;4.00;99.90
7196;DHT22;3639;51.308;5.624;2023-11-18T00:12:11;4.00;99.90
7196;DHT22;3639;51.308;5.624;2023-11-18T00:14:37;4.00;99.90
7196;DHT22;3639;51.308;5.624;2023-11-18T00:17:03;4.00;99.90
7196;DHT22;3639;51.308;5.624;2023-11-18T00:19:29;4.00;99.90
7196;DHT22;3639;51.308;5.624;2023-11-18T00:21:55;4.00;99.90
7196;DHT22;3639;51.308;5.624;2023-11-18T00:24:21;4.00;99.90
7196;DHT22;3639;51.308;5.624;2023-11-18T00:26:46;4.00;99.90
7196;DHT22;3639;51.308;5.624;2023-11-18T00:29:12;4.00;99.90
7196;DHT22;3639;51.308;5.624;2023-11-18T00:31:38;3.90;99.90
7196;DHT22;3639;51.308;5.624;2023-11-18T00:34:03;3.90;99.90
7196;DHT22;3639;51.308;5.624;2023-11-18T00:36:29;3.90;99.90
7196;DHT22;3639;51.308;5.624;2023-11-18T00:38:54;3.90;99.90
7196;DHT22;3639;51.308;5.624;2023-11-18T00:41:20;3.90;99.90
7196;DHT22;3639;51.308;5.624;2023-11-18T00:43:46;3.90;99.90
7196;DHT22;3639;51.308;5.624;2023-11-18T00:46:12;3.90;99.90
7196;DHT22;3639;51.308;5.624;2023-11-18T00:48:38;3.90;99.90
7196;DHT22;3639;51.308;5.624;2023-11-18T00:51:05;3.80;99.90
7196;DHT22;3639;51.308;5.624;2023-11-18T00:53:31;3.80;99.90
7196;DHT22;3639;51.308;5.624;2023-11-18T00:55:57;3.80;99.90
7196;DHT22;3639;51.308;5.624;2023-11-18T00:58:22;3.80;99.90
7196;DHT22;3639;51.308;5.624;2023-11-18T01:00:48;3.70;99.90
7196;DHT22;3639;51.308;5.624;2023-11-18T01:03:13;3.70;99.90
7196;DHT22;3639;51.308;5.624;2023-11-18T01:05:39;3.70;99.90
7196;DHT22;3639;51.308;5.624;2023-11-18T01:08:04;3.70;99.90
7196;DHT22;3639;51.308;5.624;2023-11-18T01:10:30;3.70;99.90
7196;DHT22;3639;51.308;5.624;2023-11-18T01:12:56;3.70;99.90
7196;DHT22;3639;51.308;5.624;2023-11-18T01:15:23;3.60;99.90
7196;DHT22;3639;51.308;5.624;2023-11-18T01:17:49;3.60;99.90
7196;DHT22;3639;51.308;5.624;2023-11-18T01:20:15;3.60;99.90
7196;DHT22;3639;51.308;5.624;2023-11-18T01:22:46;3.60;99.90
7196;DHT22;3639;51.308;5.624;2023-11-18T01:25:14;3.60;99.90
7196;DHT22;3639;51.308;5.624;2023-11-18T01:27:42;3.60;99.90
7196;DHT22;3639;51.308;5.624;2023-11-18T01:30:08;3.60;99.90
7196;DHT22;3639;51.308;5.624;2023-11-18T01:32:35;3.60;99.90
7196;DHT22;3639;51.308;5.624;2023-11-18T01:35:00;3.70;99.90
7196;DHT22;3639;51.308;5.624;2023-11-18T01:37:26;3.70;99.90
7196;DHT22;3639;51.308;5.624;2023-11-18T01:39:52;3.80;99.90
7196;DHT22;3639;51.308;5.624;2023-11-18T01:42:17;3.80;99.90
7196;DHT22;3639;51.308;5.624;2023-11-18T01:44:43;3.90;99.90
7196;DHT22;3639;51.308;5.624;2023-11-18T01:47:09;3.90;99.90
7196;DHT22;3639;51.308;5.624;2023-11-18T01:49:38;4.00;99.90
7196;DHT22;3639;51.308;5.624;2023-11-18T01:52:09;4.10;99.90
7196;DHT22;3639;51.308;5.624;2023-11-18T01:54:37;4.10;99.90
7196;DHT22;3639;51.308;5.624;2023-11-18T01:57:03;4.10;99.90
7196;DHT22;3639;51.308;5.624;2023-11-18T01:59:32;4.10;99.90
7196;DHT22;3639;51.308;5.624;2023-11-18T02:01:59;4.20;99.90
7196;DHT22;3639;51.308;5.624;2023-11-18T02:04:25;4.20;99.90
7196;DHT22;3639;51.308;5.624;2023-11-18T02:06:52;4.20;99.90
7196;DHT22;3639;51.308;5.624;2023-11-18T02:09:19;4.20;99.90
7196;DHT22;3639;51.308;5.624;2023-11-18T02:12:16;4.30;99.90
7196;DHT22;3639;51.308;5.624;2023-11-18T02:14:45;4.30;99.90
7196;DHT22;3639;51.308;5.624;2023-11-18T02:17:14;4.30;99.90
7196;DHT22;3639;51.308;5.624;2023-11-18T02:19:40;4.30;99.90
7196;DHT22;3639;51.308;5.624;2023-11-18T02:22:07;4.30;99.90
7196;DHT22;3639;51.308;5.624;2023-11-18T02:24:33;4.40;99.90
7196;DHT22;3639;51.308;5.624;2023-11-18T02:27:03;4.40;99.90
7196;DHT22;3639;51.308;5.624;2023-11-18T02:29:38;4.40;99.90
7196;DHT22;3639;51.308;5.624;2023-11-18T02:35:28;4.40;99.90
7196;DHT22;3639;51.308;5.624;2023-11-18T02:37:55;4.40;99.90
7196;DHT22;3639;51.308;5.624;2023-11-18T02:40:36;4.40;99.90
7196;DHT22;3639;51.308;5.624;2023-11-18T02:43:04;4.40;99.90
7196;DHT22;3639;51.308;5.624;2023-11-18T02:45:36;4.40;99.90
7196;DHT22;3639;51.308;5.624;2023-11-18T02:48:03;4.40;99.90
7196;DHT22;3639;51.308;5.624;2023-11-18T02:50:29;4.40;99.90
7196;DHT22;3639;51.308;5.624;2023-11-18T02:52:55;4.50;99.90
7196;DHT22;3639;51.308;5.624;2023-11-18T02:55:21;4.50;99.90
7196;DHT22;3639;51.308;5.624;2023-11-18T02:57:48;4.50;99.90
7196;DHT22;3639;51.308;5.624;2023-11-18T03:00:15;4.50;99.90
7196;DHT22;3639;51.308;5.624;2023-11-18T03:02:47;4.60;99.90
7196;DHT22;3639;51.308;5.624;2023-11-18T03:05:14;4.50;99.90
7196;DHT22;3639;51.308;5.624;2023-11-18T03:07:47;4.50;99.90
7196;DHT22;3639;51.308;5.624;2023-11-18T03:10:19;4.50;99.90
7196;DHT22;3639;51.308;5.624;2023-11-18T03:12:48;4.50;99.90
7196;DHT22;3639;51.308;5.624;2023-11-18T03:15:15;4.60;99.90
7196;DHT22;3639;51.308;5.624;2023-11-18T03:17:47;4.60;99.90
7196;DHT22;3639;51.308;5.624;2023-11-18T03:20:14;4.60;99.90
7196;DHT22;3639;51.308;5.624;2023-11-18T03:22:46;4.60;99.90
7196;DHT22;3639;51.308;5.624;2023-11-18T03:25:12;4.60;99.90
7196;DHT22;3639;51.308;5.624;2023-11-18T03:27:38;4.60;99.90
7196;DHT22;3639;51.308;5.624;2023-11-18T03:30:05;4.60;99.90
7196;DHT22;3639;51.308;5.624;2023-11-18T03:32:32;4.60;99.90
7196;DHT22;3639;51.308;5.624;2023-11-18T03:34:57;4.60;99.90
7196;DHT22;3639;51.308;5.624;2023-11-18T03:37:24;4.60;99.90
7196;DHT22;3639;51.308;5.624;2023-11-18T03:39:52;4.60;99.90
7196;DHT22;3639;51.308;5.624;2023-11-18T03:42:17;4.60;99.90
7196;DHT22;3639;51.308;5.624;2023-11-18T03:44:43;4.60;99.90
7196;DHT22;3639;51.308;5.624;2023-11-18T03:47:09;4.50;99.90
7196;DHT22;3639;51.308;5.624;2023-11-18T03:49:35;4.60;99.90
7196;DHT22;3639;51.308;5.624;2023-11-18T03:52:00;4.60;99.90
7196;DHT22;3639;51.308;5.624;2023-11-18T03:54:26;4.60;99.90
7196;DHT22;3639;51.308;5.624;2023-11-18T03:56:52;4.60;99.90
7196;DHT22;3639;51.308;5.624;2023-11-18T03:59:18;4.60;99.90
7196;DHT22;3639;51.308;5.624;2023-11-18T04:01:43;4.60;99.90
7196;DHT22;3639;51.308;5.624;2023-11-18T04:04:09;4.60;99.90
7196;DHT22;3639;51.308;5.624;2023-11-18T04:06:34;4.60;99.90
7196;DHT22;3639;51.308;5.624;2023-11-18T04:09:00;4.60;99.90
7196;DHT22;3639;51.308;5.624;2023-11-18T04:11:25;4.60;99.90
7196;DHT22;3639;51.308;5.624;2023-11-18T04:13:51;4.60;99.90
7196;DHT22;3639;51.308;5.624;2023-11-18T04:16:17;4.60;99.90
7196;DHT22;3639;51.308;5.624;2023-11-18T04:18:43;4.60;99.90
7196;DHT22;3639;51.308;5.624;2023-11-18T04:21:10;4.60;99.90
7196;DHT22;3639;51.308;5.624;2023-11-18T04:23:41;4.60;99.90
7196;DHT22;3639;51.308;5.624;2023-11-18T04:26:08;4.60;99.90
7196;DHT22;3639;51.308;5.624;2023-11-18T04:28:34;4.60;99.90
7196;DHT22;3639;51.308;5.624;2023-11-18T04:31:00;4.70;99.90
7196;DHT22;3639;51.308;5.624;2023-11-18T04:33:26;4.70;99.90
7196;DHT22;3639;51.308;5.624;2023-11-18T04:35:52;4.70;99.90
7196;DHT22;3639;51.308;5.624;2023-11-18T04:38:18;4.70;99.90
7196;DHT22;3639;51.308;5.624;2023-11-18T04:40:44;4.70;99.90
7196;DHT22;3639;51.308;5.624;2023-11-18T04:43:11;4.80;99.90
7196;DHT22;3639;51.308;5.624;2023-11-18T04:45:37;4.80;99.90
7196;DHT22;3639;51.308;5.624;2023-11-18T04:48:03;4.80;99.90
7196;DHT22;3639;51.308;5.624;2023-11-18T04:50:29;4.90;99.90
7196;DHT22;3639;51.308;5.624;2023-11-18T04:52:56;4.90;99.90
7196;DHT22;3639;51.308;5.624;2023-11-18T04:55:21;4.90;99.90
7196;DHT22;3639;51.308;5.624;2023-11-18T04:57:47;4.90;99.90
7196;DHT22;3639;51.308;5.624;2023-11-18T05:00:13;4.90;99.90
7196;DHT22;3639;51.308;5.624;2023-11-18T05:02:42;4.90;99.90
7196;DHT22;3639;51.308;5.624;2023-11-18T05:05:09;5.00;99.90
7196;DHT22;3639;51.308;5.624;2023-11-18T05:07:35;5.00;99.90
7196;DHT22;3639;51.308;5.624;2023-11-18T05:10:01;5.00;99.90
7196;DHT22;3639;51.308;5.624;2023-11-18T05:12:28;5.00;99.90
7196;DHT22;3639;51.308;5.624;2023-11-18T05:14:55;5.10;99.90
7196;DHT22;3639;51.308;5.624;2023-11-18T05:17:22;5.10;99.90
7196;DHT22;3639;51.308;5.624;2023-11-18T05:19:48;5.10;99.90
7196;DHT22;3639;51.308;5.624;2023-11-18T05:22:13;5.10;99.90
7196;DHT22;3639;51.308;5.624;2023-11-18T05:24:39;5.10;99.90
7196;DHT22;3639;51.308;5.624;2023-11-18T05:27:04;5.20;99.90
7196;DHT22;3639;51.308;5.624;2023-11-18T05:29:31;5.20;99.90
7196;DHT22;3639;51.308;5.624;2023-11-18T05:31:57;5.20;99.90
7196;DHT22;3639;51.308;5.624;2023-11-18T05:34:23;5.30;99.90
7196;DHT22;3639;51.308;5.624;2023-11-18T05:36:49;5.20;99.90
7196;DHT22;3639;51.308;5.624;2023-11-18T05:39:20;5.20;99.90
7196;DHT22;3639;51.308;5.624;2023-11-18T05:41:46;5.30;99.90
7196;DHT22;3639;51.308;5.624;2023-11-18T05:44:18;5.30;99.90
7196;DHT22;3639;51.308;5.624;2023-11-18T05:46:45;5.40;99.90
7196;DHT22;3639;51.308;5.624;2023-11-18T05:49:17;5.50;99.90
7196;DHT22;3639;51.308;5.624;2023-11-18T05:51:43;5.50;99.90
7196;DHT22;3639;51.308;5.624;2023-11-18T05:54:09;5.40;99.90
7196;DHT22;3639;51.308;5.624;2023-11-18T05:56:36;5.40;99.90
7196;DHT22;3639;51.308;5.624;2023-11-18T05:59:01;5.40;99.90
7196;DHT22;3639;51.308;5.624;2023-11-18T06:01:28;5.40;99.90
7196;DHT22;3639;51.308;5.624;2023-11-18T06:03:54;5.50;99.90
7196;DHT22;3639;51.308;5.624;2023-11-18T06:06:22;5.40;99.90
7196;DHT22;3639;51.308;5.624;2023-11-18T06:08:47;5.50;99.90
7196;DHT22;3639;51.308;5.624;2023-11-18T06:11:14;5.40;99.90
7196;DHT22;3639;51.308;5.624;2023-11-18T06:13:45;5.50;99.90
7196;DHT22;3639;51.308;5.624;2023-11-18T06:16:15;5.60;99.90
7196;DHT22;3639;51.308;5.624;2023-11-18T06:18:42;5.50;99.90
7196;DHT22;3639;51.308;5.624;2023-11-18T06:21:14;5.50;99.90
7196;DHT22;3639;51.308;5.624;2023-11-18T06:23:41;5.50;99.90
7196;DHT22;3639;51.308;5.624;2023-11-18T06:26:07;5.50;99.90
7196;DHT22;3639;51.308;5.624;2023-11-18T06:28:37;5.50;99.90
7196;DHT22;3639;51.308;5.624;2023-11-18T06:31:03;5.60;99.90
7196;DHT22;3639;51.308;5.624;2023-11-18T06:33:28;5.50;99.90
7196;DHT22;3639;51.308;5.624;2023-11-18T06:35:54;5.50;99.90
7196;DHT22;3639;51.308;5.624;2023-11-18T06:38:21;5.50;99.90
7196;DHT22;3639;51.308;5.624;2023-11-18T06:40:48;5.50;99.90
7196;DHT22;3639;51.308;5.624;2023-11-18T06:43:18;5.50;99.90
7196;DHT22;3639;51.308;5.624;2023-11-18T06:45:44;5.50;99.90
7196;DHT22;3639;51.308;5.624;2023-11-18T06:48:10;5.50;99.90
7196;DHT22;3639;51.308;5.624;2023-11-18T06:50:36;5.50;99.90
7196;DHT22;3639;51.308;5.624;2023-11-18T06:53:01;5.50;99.90
7196;DHT22;3639;51.308;5.624;2023-11-18T06:55:27;5.50;99.90
7196;DHT22;3639;51.308;5.624;2023-11-18T06:57:53;5.50;99.90
7196;DHT22;3639;51.308;5.624;2023-11-18T07:00:20;5.60;99.90
7196;DHT22;3639;51.308;5.624;2023-11-18T07:02:47;5.60;99.90
7196;DHT22;3639;51.308;5.624;2023-11-18T07:05:13;5.60;99.90
7196;DHT22;3639;51.308;5.624;2023-11-18T07:07:40;5.60;99.90
7196;DHT22;3639;51.308;5.624;2023-11-18T07:10:06;5.60;99.90
7196;DHT22;3639;51.308;5.624;2023-11-18T07:12:32;5.60;99.90
7196;DHT22;3639;51.308;5.624;2023-11-18T07:14:59;5.60;99.90
7196;DHT22;3639;51.308;5.624;2023-11-18T07:17:26;5.70;99.90
7196;DHT22;3639;51.308;5.624;2023-11-18T07:19:51;5.60;99.90
7196;DHT22;3639;51.308;5.624;2023-11-18T07:22:17;5.60;99.90
7196;DHT22;3639;51.308;5.624;2023-11-18T07:24:42;5.70;99.90
7196;DHT22;3639;51.308;5.624;2023-11-18T07:27:08;5.70;99.90
7196;DHT22;3639;51.308;5.624;2023-11-18T07:29:36;5.70;99.90
7196;DHT22;3639;51.308;5.624;2023-11-18T07:32:02;5.80;99.90
7196;DHT22;3639;51.308;5.624;2023-11-18T07:34:31;5.80;99.90
7196;DHT22;3639;51.308;5.624;2023-11-18T07:36:58;5.90;99.90
7196;DHT22;3639;51.308;5.624;2023-11-18T07:39:24;5.90;99.90
7196;DHT22;3639;51.308;5.624;2023-11-18T07:41:50;5.90;99.90
7196;DHT22;3639;51.308;5.624;2023-11-18T07:44:15;5.90;99.90
7196;DHT22;3639;51.308;5.624;2023-11-18T07:46:41;6.00;99.90
7196;DHT22;3639;51.308;5.624;2023-11-18T07:49:08;5.90;99.90
7196;DHT22;3639;51.308;5.624;2023-11-18T07:51:34;6.00;99.90
7196;DHT22;3639;51.308;5.624;2023-11-18T07:54:00;6.00;99.90
7196;DHT22;3639;51.308;5.624;2023-11-18T07:56:25;6.00;99.90
7196;DHT22;3639;51.308;5.624;2023-11-18T07:58:52;6.00;99.90
7196;DHT22;3639;51.308;5.624;2023-11-18T08:01:19;6.00;99.90
7196;DHT22;3639;51.308;5.624;2023-11-18T08:03:46;6.00;99.90
7196;DHT22;3639;51.308;5.624;2023-11-18T08:06:13;6.00;99.90
7196;DHT22;3639;51.308;5.624;2023-11-18T08:08:39;6.00;99.90
7196;DHT22;3639;51.308;5.624;2023-11-18T08:11:05;6.10;99.90
7196;DHT22;3639;51.308;5.624;2023-11-18T08:13:31;6.10;99.90
7196;DHT22;3639;51.308;5.624;2023-11-18T08:15:56;6.10;99.90
7196;DHT22;3639;51.308;5.624;2023-11-18T08:18:25;6.10;99.90
7196;DHT22;3639;51.308;5.624;2023-11-18T08:20:52;6.10;99.90
7196;DHT22;3639;51.308;5.624;2023-11-18T08:23:18;6.20;99.90
7196;DHT22;3639;51.308;5.624;2023-11-18T08:25:44;6.20;99.90
7196;DHT22;3639;51.308;5.624;2023-11-18T08:28:11;6.20;99.90
7196;DHT22;3639;51.308;5.624;2023-11-18T08:30:37;6.20;99.90
7196;DHT22;3639;51.308;5.624;2023-11-18T08:33:03;6.30;99.90
7196;DHT22;3639;51.308;5.624;2023-11-18T08:35:35;6.30;99.90
7196;DHT22;3639;51.308;5.624;2023-11-18T08:38:01;6.30;99.90
7196;DHT22;3639;51.308;5.624;2023-11-18T08:40:28;6.30;99.90
7196;DHT22;3639;51.308;5.624;2023-11-18T08:42:54;6.40;99.90
7196;DHT22;3639;51.308;5.624;2023-11-18T08:45:22;6.40;99.90
7196;DHT22;3639;51.308;5.624;2023-11-18T08:47:53;6.40;99.90
7196;DHT22;3639;51.308;5.624;2023-11-18T08:50:19;6.40;99.90
7196;DHT22;3639;51.308;5.624;2023-11-18T08:52:47;6.50;99.90
7196;DHT22;3639;51.308;5.624;2023-11-18T08:55:14;6.50;99.90
7196;DHT22;3639;51.308;5.624;2023-11-18T08:57:50;6.60;99.90
7196;DHT22;3639;51.308;5.624;2023-11-18T09:00:26;6.60;99.90
7196;DHT22;3639;51.308;5.624;2023-11-18T09:03:11;6.60;99.90
7196;DHT22;3639;51.308;5.624;2023-11-18T09:05:58;6.60;99.90
7196;DHT22;3639;51.308;5.624;2023-11-18T09:08:31;6.60;99.90
7196;DHT22;3639;51.308;5.624;2023-11-18T09:11:03;6.60;99.90
7196;DHT22;3639;51.308;5.624;2023-11-18T09:13:32;6.70;99.90
7196;DHT22;3639;51.308;5.624;2023-11-18T09:16:01;6.70;99.90
7196;DHT22;3639;51.308;5.624;2023-11-18T09:18:33;6.70;99.90
7196;DHT22;3639;51.308;5.624;2023-11-18T09:21:03;6.70;99.90
7196;DHT22;3639;51.308;5.624;2023-11-18T09:23:32;6.70;99.90
7196;DHT22;3639;51.308;5.624;2023-11-18T09:26:00;6.70;99.90
7196;DHT22;3639;51.308;5.624;2023-11-18T09:28:27;6.80;99.90
7196;DHT22;3639;51.308;5.624;2023-11-18T09:30:56;6.80;99.90
7196;DHT22;3639;51.308;5.624;2023-11-18T09:33:26;6.90;99.90
7196;DHT22;3639;51.308;5.624;2023-11-18T09:36:08;6.90;99.90
7196;DHT22;3639;51.308;5.624;2023-11-18T09:38:38;6.90;99.90
7196;DHT22;3639;51.308;5.624;2023-11-18T09:41:06;6.90;99.90
7196;DHT22;3639;51.308;5.624;2023-11-18T09:43:37;7.00;99.90
7196;DHT22;3639;51.308;5.624;2023-11-18T09:48:46;7.00;99.90
7196;DHT22;3639;51.308;5.624;2023-11-18T09:51:15;7.10;99.90
7196;DHT22;3639;51.308;5.624;2023-11-18T09:53:44;7.20;99.90
7196;DHT22;3639;51.308;5.624;2023-11-18T09:56:21;7.20;99.90
7196;DHT22;3639;51.308;5.624;2023-11-18T09:59:04;7.20;99.90
7196;DHT22;3639;51.308;5.624;2023-11-18T10:01:37;7.20;99.90
7196;DHT22;3639;51.308;5.624;2023-11-18T10:04:05;7.20;99.90
7196;DHT22;3639;51.308;5.624;2023-11-18T10:06:35;7.20;99.90
7196;DHT22;3639;51.308;5.624;2023-11-18T10:09:02;7.30;99.90
7196;DHT22;3639;51.308;5.624;2023-11-18T10:11:44;7.30;99.90
7196;DHT22;3639;51.308;5.624;2023-11-18T10:14:13;7.40;99.90
7196;DHT22;3639;51.308;5.624;2023-11-18T10:16:41;7.40;99.90
7196;DHT22;3639;51.308;5.624;2023-11-18T10:19:07;7.50;99.90
7196;DHT22;3639;51.308;5.624;2023-11-18T10:21:37;7.50;99.90
7196;DHT22;3639;51.308;5.624;2023-11-18T10:24:08;7.60;99.90
7196;DHT22;3639;51.308;5.624;2023-11-18T10:26:41;7.60;99.90
7196;DHT22;3639;51.308;5.624;2023-11-18T10:29:09;7.60;99.90
7196;DHT22;3639;51.308;5.624;2023-11-18T10:31:35;7.70;99.90
7196;DHT22;3639;51.308;5.624;2023-11-18T10:34:06;7.70;99.90
7196;DHT22;3639;51.308;5.624;2023-11-18T10:36:32;7.70;99.90
7196;DHT22;3639;51.308;5.624;2023-11-18T10:38:58;7.70;99.90
7196;DHT22;3639;51.308;5.624;2023-11-18T10:41:26;7.70;99.90
7196;DHT22;3639;51.308;5.624;2023-11-18T10:44:08;7.80;99.90
7196;DHT22;3639;51.308;5.624;2023-11-18T10:46:40;7.80;99.90
7196;DHT22;3639;51.308;5.624;2023-11-18T10:49:06;7.90;99.90
7196;DHT22;3639;51.308;5.624;2023-11-18T10:51:35;7.90;99.90
7196;DHT22;3639;51.308;5.624;2023-11-18T10:54:04;8.00;99.90
7196;DHT22;3639;51.308;5.624;2023-11-18T10:56:46;7.90;99.90
7196;DHT22;3639;51.308;5.624;2023-11-18T10:59:12;7.90;99.90
7196;DHT22;3639;51.308;5.624;2023-11-18T11:01:44;8.10;99.90
7196;DHT22;3639;51.308;5.624;2023-11-18T11:04:13;8.10;99.90
7196;DHT22;3639;51.308;5.624;2023-11-18T11:06:44;8.10;99.90
7196;DHT22;3639;51.308;5.624;2023-11-18T11:09:20;8.10;99.90
7196;DHT22;3639;51.308;5.624;2023-11-18T11:11:54;8.10;99.90
7196;DHT22;3639;51.308;5.624;2023-11-18T11:14:23;8.10;99.90
7196;DHT22;3639;51.308;5.624;2023-11-18T11:16:54;8.20;99.90
7196;DHT22;3639;51.308;5.624;2023-11-18T11:19:25;8.20;99.90
7196;DHT22;3639;51.308;5.624;2023-11-18T11:22:05;8.20;99.90
7196;DHT22;3639;51.308;5.624;2023-11-18T11:27:22;8.30;99.90
7196;DHT22;3639;51.308;5.624;2023-11-18T11:30:02;8.30;99.90
7196;DHT22;3639;51.308;5.624;2023-11-18T11:32:43;8.30;99.90
7196;DHT22;3639;51.308;5.624;2023-11-18T11:35:16;8.30;99.90
7196;DHT22;3639;51.308;5.624;2023-11-18T11:37:47;8.30;99.90
7196;DHT22;3639;51.308;5.624;2023-11-18T11:40:14;8.40;99.90
7196;DHT22;3639;51.308;5.624;2023-11-18T11:42:50;8.50;99.90
7196;DHT22;3639;51.308;5.624;2023-11-18T11:45:23;8.40;99.90
7196;DHT22;3639;51.308;5.624;2023-11-18T11:47:55;8.40;99.90
7196;DHT22;3639;51.308;5.624;2023-11-18T11:50:59;8.40;99.90
7196;DHT22;3639;51.308;5.624;2023-11-18T11:53:31;8.40;99.90
7196;DHT22;3639;51.308;5.624;2023-11-18T11:56:01;8.40;99.90
7196;DHT22;3639;51.308;5.624;2023-11-18T11:58:39;8.40;99.90
7196;DHT22;3639;51.308;5.624;2023-11-18T12:01:32;8.40;99.90
7196;DHT22;3639;51.308;5.624;2023-11-18T12:04:03;8.30;99.90
7196;DHT22;3639;51.308;5.624;2023-11-18T12:06:32;8.30;99.90
7196;DHT22;3639;51.308;5.624;2023-11-18T12:09:01;8.30;99.90
7196;DHT22;3639;51.308;5.624;2023-11-18T12:11:33;8.40;99.90
7196;DHT22;3639;51.308;5.624;2023-11-18T12:14:06;8.30;99.90
7196;DHT22;3639;51.308;5.624;2023-11-18T12:17:13;8.30;99.90
7196;DHT22;3639;51.308;5.624;2023-11-18T12:19:47;8.30;99.90
7196;DHT22;3639;51.308;5.624;2023-11-18T12:22:22;8.30;99.90
7196;DHT22;3639;51.308;5.624;2023-11-18T12:33:04;8.30;99.90
7196;DHT22;3639;51.308;5.624;2023-11-18T12:38:59;8.30;99.90
7196;DHT22;3639;51.308;5.624;2023-11-18T12:41:35;8.40;99.90
7196;DHT22;3639;51.308;5.624;2023-11-18T12:44:30;8.30;99.90
7196;DHT22;3639;51.308;5.624;2023-11-18T12:47:05;8.40;99.90
7196;DHT22;3639;51.308;5.624;2023-11-18T12:49:41;8.40;99.90
7196;DHT22;3639;51.308;5.624;2023-11-18T12:52:08;8.40;99.90
7196;DHT22;3639;51.308;5.624;2023-11-18T12:54:34;8.40;99.90
7196;DHT22;3639;51.308;5.624;2023-11-18T12:57:04;8.40;99.90
7196;DHT22;3639;51.308;5.624;2023-11-18T12:59:33;8.30;99.90
7196;DHT22;3639;51.308;5.624;2023-11-18T13:01:59;8.40;99.90
7196;DHT22;3639;51.308;5.624;2023-11-18T13:04:32;8.40;99.90
7196;DHT22;3639;51.308;5.624;2023-11-18T13:06:59;8.40;99.90
7196;DHT22;3639;51.308;5.624;2023-11-18T13:09:26;8.40;99.90
7196;DHT22;3639;51.308;5.624;2023-11-18T13:11:59;8.50;99.90
7196;DHT22;3639;51.308;5.624;2023-11-18T13:14:27;8.50;99.90
7196;DHT22;3639;51.308;5.624;2023-11-18T13:16:56;8.40;99.90
7196;DHT22;3639;51.308;5.624;2023-11-18T13:19:26;8.40;99.90
7196;DHT22;3639;51.308;5.624;2023-11-18T13:21:56;8.50;99.90
7196;DHT22;3639;51.308;5.624;2023-11-18T13:24:22;8.50;99.90
7196;DHT22;3639;51.308;5.624;2023-11-18T13:26:48;8.50;99.90
7196;DHT22;3639;51.308;5.624;2023-11-18T13:29:14;8.50;99.90
7196;DHT22;3639;51.308;5.624;2023-11-18T13:31:40;8.50;99.90
7196;DHT22;3639;51.308;5.624;2023-11-18T13:34:06;8.50;99.90
7196;DHT22;3639;51.308;5.624;2023-11-18T13:36:32;8.50;99.90
7196;DHT22;3639;51.308;5.624;2023-11-18T13:38:58;8.60;99.90
7196;DHT22;3639;51.308;5.624;2023-11-18T13:41:30;8.60;99.90
7196;DHT22;3639;51.308;5.624;2023-11-18T13:43:57;8.50;99.90
7196;DHT22;3639;51.308;5.624;2023-11-18T13:46:24;8.50;99.90
7196;DHT22;3639;51.308;5.624;2023-11-18T13:48:51;8.50;99.90
7196;DHT22;3639;51.308;5.624;2023-11-18T13:51:18;8.60;99.90
7196;DHT22;3639;51.308;5.624;2023-11-18T13:53:47;8.60;99.90
7196;DHT22;3639;51.308;5.624;2023-11-18T13:56:13;8.50;99.90
7196;DHT22;3639;51.308;5.624;2023-11-18T13:58:42;8.50;99.90
7196;DHT22;3639;51.308;5.624;2023-11-18T14:01:09;8.50;99.90
7196;DHT22;3639;51.308;5.624;2023-11-18T14:03:36;8.50;99.90
7196;DHT22;3639;51.308;5.624;2023-11-18T14:06:05;8.50;99.90
7196;DHT22;3639;51.308;5.624;2023-11-18T14:08:31;8.50;99.90
7196;DHT22;3639;51.308;5.624;2023-11-18T14:10:57;8.50;99.90
7196;DHT22;3639;51.308;5.624;2023-11-18T14:13:23;8.50;99.90
7196;DHT22;3639;51.308;5.624;2023-11-18T14:15:48;8.50;99.90
7196;DHT22;3639;51.308;5.624;2023-11-18T14:18:20;8.50;99.90
7196;DHT22;3639;51.308;5.624;2023-11-18T14:20:46;8.50;99.90
7196;DHT22;3639;51.308;5.624;2023-11-18T14:23:13;8.50;99.90
7196;DHT22;3639;51.308;5.624;2023-11-18T14:25:39;8.50;99.90
7196;DHT22;3639;51.308;5.624;2023-11-18T14:28:05;8.50;99.90
7196;DHT22;3639;51.308;5.624;2023-11-18T14:30:34;8.50;99.90
7196;DHT22;3639;51.308;5.624;2023-11-18T14:33:00;8.50;99.90
7196;DHT22;3639;51.308;5.624;2023-11-18T14:35:25;8.50;99.90
7196;DHT22;3639;51.308;5.624;2023-11-18T14:37:51;8.50;99.90
7196;DHT22;3639;51.308;5.624;2023-11-18T14:40:17;8.50;99.90
7196;DHT22;3639;51.308;5.624;2023-11-18T14:42:47;8.50;99.90
7196;DHT22;3639;51.308;5.624;2023-11-18T14:45:14;8.50;99.90
7196;DHT22;3639;51.308;5.624;2023-11-18T14:47:40;8.60;99.90
7196;DHT22;3639;51.308;5.624;2023-11-18T14:50:06;8.60;99.90
7196;DHT22;3639;51.308;5.624;2023-11-18T14:52:41;8.60;99.90
7196;DHT22;3639;51.308;5.624;2023-11-18T14:55:07;8.60;99.90
7196;DHT22;3639;51.308;5.624;2023-11-18T14:57:41;8.60;99.90
7196;DHT22;3639;51.308;5.624;2023-11-18T15:00:07;8.60;99.90
7196;DHT22;3639;51.308;5.624;2023-11-18T15:02:33;8.60;99.90
7196;DHT22;3639;51.308;5.624;2023-11-18T15:05:02;8.60;99.90
7196;DHT22;3639;51.308;5.624;2023-11-18T15:07:30;8.60;99.90
7196;DHT22;3639;51.308;5.624;2023-11-18T15:09:55;8.60;99.90
7196;DHT22;3639;51.308;5.624;2023-11-18T15:12:23;8.60;99.90
7196;DHT22;3639;51.308;5.624;2023-11-18T15:14:48;8.60;99.90
7196;DHT22;3639;51.308;5.624;2023-11-18T15:17:14;8.70;99.90
7196;DHT22;3639;51.308;5.624;2023-11-18T15:19:40;8.70;99.90
7196;DHT22;3639;51.308;5.624;2023-11-18T15:22:06;8.70;99.90
7196;DHT22;3639;51.308;5.624;2023-11-18T15:24:31;8.70;99.90
7196;DHT22;3639;51.308;5.624;2023-11-18T15:27:00;8.70;99.90
7196;DHT22;3639;51.308;5.624;2023-11-18T15:29:28;8.70;99.90
7196;DHT22;3639;51.308;5.624;2023-11-18T15:31:59;8.70;99.90
7196;DHT22;3639;51.308;5.624;2023-11-18T15:34:24;8.70;99.90
7196;DHT22;3639;51.308;5.624;2023-11-18T15:36:50;8.70;99.90
7196;DHT22;3639;51.308;5.624;2023-11-18T15:39:17;8.80;99.90
7196;DHT22;3639;51.308;5.624;2023-11-18T15:41:42;8.80;99.90
7196;DHT22;3639;51.308;5.624;2023-11-18T15:44:08;8.80;99.90
7196;DHT22;3639;51.308;5.624;2023-11-18T15:46:37;8.80;99.90
7196;DHT22;3639;51.308;5.624;2023-11-18T15:49:03;8.80;99.90
7196;DHT22;3639;51.308;5.624;2023-11-18T15:51:28;8.80;99.90
7196;DHT22;3639;51.308;5.624;2023-11-18T15:53:56;8.80;99.90
7196;DHT22;3639;51.308;5.624;2023-11-18T15:56:21;8.90;99.90
7196;DHT22;3639;51.308;5.624;2023-11-18T15:58:48;8.80;99.90
7196;DHT22;3639;51.308;5.624;2023-11-18T16:01:14;8.90;99.90
7196;DHT22;3639;51.308;5.624;2023-11-18T16:03:39;8.90;99.90
7196;DHT22;3639;51.308;5.624;2023-11-18T16:06:05;8.90;99.90
7196;DHT22;3639;51.308;5.624;2023-11-18T16:08:31;8.90;99.90
7196;DHT22;3639;51.308;5.624;2023-11-18T16:10:56;8.90;99.90
7196;DHT22;3639;51.308;5.624;2023-11-18T16:13:22;9.00;99.90
7196;DHT22;3639;51.308;5.624;2023-11-18T16:15:48;9.00;99.90
7196;DHT22;3639;51.308;5.624;2023-11-18T16:18:13;9.10;99.90
7196;DHT22;3639;51.308;5.624;2023-11-18T16:20:39;9.00;99.90
7196;DHT22;3639;51.308;5.624;2023-11-18T16:23:05;9.10;99.90
7196;DHT22;3639;51.308;5.624;2023-11-18T16:25:31;9.10;99.90
7196;DHT22;3639;51.308;5.624;2023-11-18T16:27:58;9.10;99.90
7196;DHT22;3639;51.308;5.624;2023-11-18T16:30:26;9.10;99.90
7196;DHT22;3639;51.308;5.624;2023-11-18T16:32:55;9.20;99.90
7196;DHT22;3639;51.308;5.624;2023-11-18T16:35:21;9.20;99.90
7196;DHT22;3639;51.308;5.624;2023-11-18T16:37:47;9.20;99.90
7196;DHT22;3639;51.308;5.624;2023-11-18T16:40:14;9.30;99.90
7196;DHT22;3639;51.308;5.624;2023-11-18T16:42:45;9.30;99.90
7196;DHT22;3639;51.308;5.624;2023-11-18T16:45:11;9.30;99.90